sensor_id;sensor_type;location;lat;lon;timestamp;pressure;altitude;pressure_sealevel;temperature
42119;BMP280;27783;42.782;23.274;2024-03-08T00:01:39;95620.22;;;5.16
42119;BMP280;27783;42.782;23.274;2024-03-08T00:04:06;95620.94;;;5.17
42119;BMP280;27783;42.782;23.274;2024-03-08T00:06:32;95626.06;;;5.10
42119;BMP280;27783;42.782;23.274;2024-03-08T00:08:57;95609.69;;;5.13
42119;BMP280;27783;42.782;23.274;2024-03-08T00:11:23;95624.19;;;5.11
42119;BMP280;27783;42.782;23.274;2024-03-08T00:13:52;95616.09;;;5.15
42119;BMP280;27783;42.782;23.274;2024-03-08T00:16:18;95622.81;;;5.16
42119;BMP280;27783;42.782;23.274;2024-03-08T00:18:45;95619.53;;;5.19
42119;BMP280;27783;42.782;23.274;2024-03-08T00:21:10;95627.63;;;5.15
42119;BMP280;27783;42.782;23.274;2024-03-08T00:23:37;95619.66;;;5.08
42119;BMP280;27783;42.782;23.274;2024-03-08T00:26:03;95624.81;;;5.04
42119;BMP280;27783;42.782;23.274;2024-03-08T00:28:29;95624.88;;;5.08
42119;BMP280;27783;42.782;23.274;2024-03-08T00:30:56;95618.81;;;5.04
42119;BMP280;27783;42.782;23.274;2024-03-08T00:33:21;95616.22;;;5.04
42119;BMP280;27783;42.782;23.274;2024-03-08T00:35:47;95621.84;;;5.06
42119;BMP280;27783;42.782;23.274;2024-03-08T00:38:13;95617.47;;;5.10
42119;BMP280;27783;42.782;23.274;2024-03-08T00:40:38;95615.47;;;5.03
42119;BMP280;27783;42.782;23.274;2024-03-08T00:43:05;95617.31;;;5.03
42119;BMP280;27783;42.782;23.274;2024-03-08T00:45:31;95612.78;;;5.00
42119;BMP280;27783;42.782;23.274;2024-03-08T00:47:56;95607.28;;;5.05
42119;BMP280;27783;42.782;23.274;2024-03-08T00:50:22;95616.22;;;5.04
42119;BMP280;27783;42.782;23.274;2024-03-08T00:52:47;95609.13;;;5.04
42119;BMP280;27783;42.782;23.274;2024-03-08T00:55:12;95609.91;;;5.05
42119;BMP280;27783;42.782;23.274;2024-03-08T00:57:38;95607.28;;;5.05
42119;BMP280;27783;42.782;23.274;2024-03-08T01:00:05;95603.16;;;5.04
42119;BMP280;27783;42.782;23.274;2024-03-08T01:02:35;95597.94;;;5.04
42119;BMP280;27783;42.782;23.274;2024-03-08T01:05:01;95599.50;;;5.08
42119;BMP280;27783;42.782;23.274;2024-03-08T01:07:27;95583.78;;;5.05
42119;BMP280;27783;42.782;23.274;2024-03-08T01:09:52;95587.53;;;5.07
42119;BMP280;27783;42.782;23.274;2024-03-08T01:12:18;95582.69;;;5.06
42119;BMP280;27783;42.782;23.274;2024-03-08T01:14:43;95585.69;;;5.08
42119;BMP280;27783;42.782;23.274;2024-03-08T01:17:08;95569.19;;;5.04
42119;BMP280;27783;42.782;23.274;2024-03-08T01:19:35;95568.09;;;5.05
42119;BMP280;27783;42.782;23.274;2024-03-08T01:22:00;95573.41;;;5.08
42119;BMP280;27783;42.782;23.274;2024-03-08T01:24:26;95574.78;;;5.02
42119;BMP280;27783;42.782;23.274;2024-03-08T01:26:51;95581.94;;;5.05
42119;BMP280;27783;42.782;23.274;2024-03-08T01:29:17;95578.28;;;5.10
42119;BMP280;27783;42.782;23.274;2024-03-08T01:31:42;95569.91;;;5.01
42119;BMP280;27783;42.782;23.274;2024-03-08T01:34:07;95565.03;;;4.99
42119;BMP280;27783;42.782;23.274;2024-03-08T01:36:33;95570.31;;;5.03
42119;BMP280;27783;42.782;23.274;2024-03-08T01:38:58;95566.47;;;4.97
42119;BMP280;27783;42.782;23.274;2024-03-08T01:41:24;95577.25;;;4.96
42119;BMP280;27783;42.782;23.274;2024-03-08T01:43:49;95567.16;;;4.94
42119;BMP280;27783;42.782;23.274;2024-03-08T01:46:19;95560.00;;;4.91
42119;BMP280;27783;42.782;23.274;2024-03-08T01:48:44;95552.16;;;4.91
42119;BMP280;27783;42.782;23.274;2024-03-08T01:51:10;95558.91;;;4.92
42119;BMP280;27783;42.782;23.274;2024-03-08T01:53:37;95557.00;;;4.89
42119;BMP280;27783;42.782;23.274;2024-03-08T01:56:03;95552.16;;;4.91
42119;BMP280;27783;42.782;23.274;2024-03-08T01:58:29;95546.00;;;4.99
42119;BMP280;27783;42.782;23.274;2024-03-08T02:00:56;95542.09;;;4.90
42119;BMP280;27783;42.782;23.274;2024-03-08T02:03:22;95562.47;;;4.84
42119;BMP280;27783;42.782;23.274;2024-03-08T02:05:48;95541.78;;;4.95
42119;BMP280;27783;42.782;23.274;2024-03-08T02:08:14;95551.09;;;4.92
42119;BMP280;27783;42.782;23.274;2024-03-08T02:10:44;95550.69;;;4.90
42119;BMP280;27783;42.782;23.274;2024-03-08T02:13:10;95555.69;;;4.98
42119;BMP280;27783;42.782;23.274;2024-03-08T02:15:56;95552.28;;;5.16
42119;BMP280;27783;42.782;23.274;2024-03-08T02:18:24;95560.53;;;5.18
42119;BMP280;27783;42.782;23.274;2024-03-08T02:20:58;95555.47;;;5.07
42119;BMP280;27783;42.782;23.274;2024-03-08T02:23:24;95555.06;;;5.05
42119;BMP280;27783;42.782;23.274;2024-03-08T02:25:50;95548.66;;;5.02
42119;BMP280;27783;42.782;23.274;2024-03-08T02:28:16;95555.69;;;4.98
42119;BMP280;27783;42.782;23.274;2024-03-08T02:30:44;95550.84;;;5.00
42119;BMP280;27783;42.782;23.274;2024-03-08T02:33:13;95555.53;;;5.10
42119;BMP280;27783;42.782;23.274;2024-03-08T02:35:41;95566.16;;;5.20
42119;BMP280;27783;42.782;23.274;2024-03-08T02:38:07;95558.94;;;5.14
42119;BMP280;27783;42.782;23.274;2024-03-08T02:40:33;95559.25;;;4.91
42119;BMP280;27783;42.782;23.274;2024-03-08T02:42:58;95559.72;;;4.78
42119;BMP280;27783;42.782;23.274;2024-03-08T02:45:24;95566.63;;;4.67
42119;BMP280;27783;42.782;23.274;2024-03-08T02:47:49;95565.66;;;4.56
42119;BMP280;27783;42.782;23.274;2024-03-08T02:50:15;95566.34;;;4.53
42119;BMP280;27783;42.782;23.274;2024-03-08T02:52:42;95572.50;;;4.46
42119;BMP280;27783;42.782;23.274;2024-03-08T02:55:07;95569.22;;;4.48
42119;BMP280;27783;42.782;23.274;2024-03-08T02:57:33;95576.63;;;4.47
42119;BMP280;27783;42.782;23.274;2024-03-08T02:59:59;95570.19;;;4.59
42119;BMP280;27783;42.782;23.274;2024-03-08T03:02:27;95568.88;;;4.68
42119;BMP280;27783;42.782;23.274;2024-03-08T03:04:52;95577.69;;;4.79
42119;BMP280;27783;42.782;23.274;2024-03-08T03:07:18;95574.03;;;4.83
42119;BMP280;27783;42.782;23.274;2024-03-08T03:09:44;95573.75;;;4.88
42119;BMP280;27783;42.782;23.274;2024-03-08T03:12:10;95569.91;;;4.82
42119;BMP280;27783;42.782;23.274;2024-03-08T03:14:36;95578.44;;;4.80
42119;BMP280;27783;42.782;23.274;2024-03-08T03:17:04;95576.94;;;4.60
42119;BMP280;27783;42.782;23.274;2024-03-08T03:19:30;95580.16;;;4.54
42119;BMP280;27783;42.782;23.274;2024-03-08T03:21:55;95578.22;;;4.51
42119;BMP280;27783;42.782;23.274;2024-03-08T03:24:21;95592.00;;;4.51
42119;BMP280;27783;42.782;23.274;2024-03-08T03:26:46;95591.06;;;4.41
42119;BMP280;27783;42.782;23.274;2024-03-08T03:29:13;95590.63;;;4.39
42119;BMP280;27783;42.782;23.274;2024-03-08T03:31:40;95587.84;;;4.47
42119;BMP280;27783;42.782;23.274;2024-03-08T03:34:06;95593.06;;;4.47
42119;BMP280;27783;42.782;23.274;2024-03-08T03:36:34;95592.69;;;4.48
42119;BMP280;27783;42.782;23.274;2024-03-08T03:39:03;95591.44;;;4.43
42119;BMP280;27783;42.782;23.274;2024-03-08T03:41:35;95602.56;;;4.40
42119;BMP280;27783;42.782;23.274;2024-03-08T03:44:00;95604.56;;;4.46
42119;BMP280;27783;42.782;23.274;2024-03-08T03:46:25;95609.09;;;4.49
42119;BMP280;27783;42.782;23.274;2024-03-08T03:48:52;95612.88;;;4.51
42119;BMP280;27783;42.782;23.274;2024-03-08T03:51:18;95619.00;;;4.40
42119;BMP280;27783;42.782;23.274;2024-03-08T03:53:44;95619.75;;;4.41
42119;BMP280;27783;42.782;23.274;2024-03-08T03:56:09;95632.38;;;4.39
42119;BMP280;27783;42.782;23.274;2024-03-08T03:58:36;95620.41;;;4.38
42119;BMP280;27783;42.782;23.274;2024-03-08T04:01:01;95631.69;;;4.42
42119;BMP280;27783;42.782;23.274;2024-03-08T04:03:29;95627.97;;;4.43
42119;BMP280;27783;42.782;23.274;2024-03-08T04:05:54;95633.88;;;4.40
42119;BMP280;27783;42.782;23.274;2024-03-08T04:08:20;95633.88;;;4.40
42119;BMP280;27783;42.782;23.274;2024-03-08T04:10:46;95634.56;;;4.37
42119;BMP280;27783;42.782;23.274;2024-03-08T04:13:12;95636.75;;;4.35
42119;BMP280;27783;42.782;23.274;2024-03-08T04:15:37;95647.94;;;4.35
42119;BMP280;27783;42.782;23.274;2024-03-08T04:18:03;95648.69;;;4.36
42119;BMP280;27783;42.782;23.274;2024-03-08T04:20:28;95644.31;;;4.40
42119;BMP280;27783;42.782;23.274;2024-03-08T04:22:54;95644.56;;;4.35
42119;BMP280;27783;42.782;23.274;2024-03-08T04:25:20;95646.59;;;4.26
42119;BMP280;27783;42.782;23.274;2024-03-08T04:27:46;95643.59;;;4.24
42119;BMP280;27783;42.782;23.274;2024-03-08T04:30:12;95644.69;;;4.23
42119;BMP280;27783;42.782;23.274;2024-03-08T04:32:38;95652.75;;;4.18
42119;BMP280;27783;42.782;23.274;2024-03-08T04:35:03;95651.19;;;4.14
42119;BMP280;27783;42.782;23.274;2024-03-08T04:37:29;95651.41;;;4.24
42119;BMP280;27783;42.782;23.274;2024-03-08T04:39:57;95651.34;;;4.21
42119;BMP280;27783;42.782;23.274;2024-03-08T04:42:23;95649.91;;;4.23
42119;BMP280;27783;42.782;23.274;2024-03-08T04:44:49;95652.75;;;4.18
42119;BMP280;27783;42.782;23.274;2024-03-08T04:47:14;95656.31;;;4.11
42119;BMP280;27783;42.782;23.274;2024-03-08T04:49:40;95649.25;;;4.11
42119;BMP280;27783;42.782;23.274;2024-03-08T04:52:05;95663.88;;;4.00
42119;BMP280;27783;42.782;23.274;2024-03-08T04:54:32;95656.56;;;3.91
42119;BMP280;27783;42.782;23.274;2024-03-08T04:56:58;95666.72;;;3.81
42119;BMP280;27783;42.782;23.274;2024-03-08T04:59:25;95664.88;;;3.81
42119;BMP280;27783;42.782;23.274;2024-03-08T05:01:51;95666.47;;;3.85
42119;BMP280;27783;42.782;23.274;2024-03-08T05:04:17;95675.13;;;3.89
42119;BMP280;27783;42.782;23.274;2024-03-08T05:06:42;95666.47;;;3.85
42119;BMP280;27783;42.782;23.274;2024-03-08T05:09:08;95679.09;;;3.83
42119;BMP280;27783;42.782;23.274;2024-03-08T05:11:43;95681.47;;;3.88
42119;BMP280;27783;42.782;23.274;2024-03-08T05:14:09;95682.19;;;3.89
42119;BMP280;27783;42.782;23.274;2024-03-08T05:16:35;95681.63;;;3.80
42119;BMP280;27783;42.782;23.274;2024-03-08T05:19:01;95683.91;;;3.82
42119;BMP280;27783;42.782;23.274;2024-03-08T05:21:27;95690.78;;;3.89
42119;BMP280;27783;42.782;23.274;2024-03-08T05:23:54;95688.84;;;3.86
42119;BMP280;27783;42.782;23.274;2024-03-08T05:26:19;95698.00;;;3.96
42119;BMP280;27783;42.782;23.274;2024-03-08T05:28:45;95704.94;;;3.88
42119;BMP280;27783;42.782;23.274;2024-03-08T05:31:20;95699.44;;;3.93
42119;BMP280;27783;42.782;23.274;2024-03-08T05:33:49;95702.91;;;3.97
42119;BMP280;27783;42.782;23.274;2024-03-08T05:36:14;95710.47;;;4.02
42119;BMP280;27783;42.782;23.274;2024-03-08T05:38:42;95714.34;;;4.08
42119;BMP280;27783;42.782;23.274;2024-03-08T05:41:09;95720.38;;;4.12
42119;BMP280;27783;42.782;23.274;2024-03-08T05:43:34;95713.00;;;4.14
42119;BMP280;27783;42.782;23.274;2024-03-08T05:45:59;95721.25;;;4.15
42119;BMP280;27783;42.782;23.274;2024-03-08T05:48:26;95731.06;;;4.22
42119;BMP280;27783;42.782;23.274;2024-03-08T05:50:51;95728.81;;;4.20
42119;BMP280;27783;42.782;23.274;2024-03-08T05:53:16;95739.00;;;4.25
42119;BMP280;27783;42.782;23.274;2024-03-08T05:55:42;95735.47;;;4.33
42119;BMP280;27783;42.782;23.274;2024-03-08T05:58:07;95736.81;;;4.42
42119;BMP280;27783;42.782;23.274;2024-03-08T06:00:33;95740.84;;;4.40
42119;BMP280;27783;42.782;23.274;2024-03-08T06:02:59;95739.19;;;4.47
42119;BMP280;27783;42.782;23.274;2024-03-08T06:05:25;95736.03;;;4.57
42119;BMP280;27783;42.782;23.274;2024-03-08T06:07:50;95739.91;;;4.63
42119;BMP280;27783;42.782;23.274;2024-03-08T06:10:18;95741.66;;;4.74
42119;BMP280;27783;42.782;23.274;2024-03-08T06:12:44;95738.31;;;4.73
42119;BMP280;27783;42.782;23.274;2024-03-08T06:15:10;95754.44;;;4.79
42119;BMP280;27783;42.782;23.274;2024-03-08T06:17:40;95757.75;;;4.76
42119;BMP280;27783;42.782;23.274;2024-03-08T06:20:06;95760.84;;;4.81
42119;BMP280;27783;42.782;23.274;2024-03-08T06:22:37;95756.13;;;4.71
42119;BMP280;27783;42.782;23.274;2024-03-08T06:25:06;95757.56;;;4.69
42119;BMP280;27783;42.782;23.274;2024-03-08T06:27:32;95759.34;;;4.65
42119;BMP280;27783;42.782;23.274;2024-03-08T06:30:02;95757.97;;;4.71
42119;BMP280;27783;42.782;23.274;2024-03-08T06:32:30;95763.19;;;4.86
42119;BMP280;27783;42.782;23.274;2024-03-08T06:34:56;95772.13;;;4.85
42119;BMP280;27783;42.782;23.274;2024-03-08T06:37:21;95766.75;;;4.78
42119;BMP280;27783;42.782;23.274;2024-03-08T06:39:50;95772.34;;;4.95
42119;BMP280;27783;42.782;23.274;2024-03-08T06:42:17;95771.22;;;5.11
42119;BMP280;27783;42.782;23.274;2024-03-08T06:44:42;95774.72;;;5.00
42119;BMP280;27783;42.782;23.274;2024-03-08T06:47:14;95779.72;;;4.90
42119;BMP280;27783;42.782;23.274;2024-03-08T06:49:44;95768.13;;;5.06
42119;BMP280;27783;42.782;23.274;2024-03-08T06:52:10;95775.16;;;5.20
42119;BMP280;27783;42.782;23.274;2024-03-08T06:54:36;95773.25;;;5.36
42119;BMP280;27783;42.782;23.274;2024-03-08T06:57:03;95768.81;;;5.36
42119;BMP280;27783;42.782;23.274;2024-03-08T06:59:29;95769.53;;;5.37
42119;BMP280;27783;42.782;23.274;2024-03-08T07:01:55;95779.78;;;5.27
42119;BMP280;27783;42.782;23.274;2024-03-08T07:04:20;95772.44;;;5.32
42119;BMP280;27783;42.782;23.274;2024-03-08T07:06:47;95782.81;;;5.47
42119;BMP280;27783;42.782;23.274;2024-03-08T07:09:15;95781.97;;;5.43
42119;BMP280;27783;42.782;23.274;2024-03-08T07:11:42;95783.19;;;5.64
42119;BMP280;27783;42.782;23.274;2024-03-08T07:14:08;95774.50;;;5.60
42119;BMP280;27783;42.782;23.274;2024-03-08T07:16:34;95779.97;;;5.70
42119;BMP280;27783;42.782;23.274;2024-03-08T07:19:04;95779.22;;;5.70
42119;BMP280;27783;42.782;23.274;2024-03-08T07:21:30;95780.50;;;5.61
42119;BMP280;27783;42.782;23.274;2024-03-08T07:23:56;95778.38;;;5.84
42119;BMP280;27783;42.782;23.274;2024-03-08T07:26:24;95783.81;;;5.76
42119;BMP280;27783;42.782;23.274;2024-03-08T07:28:50;95787.13;;;5.92
42119;BMP280;27783;42.782;23.274;2024-03-08T07:31:15;95790.22;;;5.97
42119;BMP280;27783;42.782;23.274;2024-03-08T07:34:04;95791.59;;;5.91
42119;BMP280;27783;42.782;23.274;2024-03-08T07:36:33;95789.44;;;5.97
42119;BMP280;27783;42.782;23.274;2024-03-08T07:39:01;95787.81;;;6.29
42119;BMP280;27783;42.782;23.274;2024-03-08T07:41:27;95788.19;;;6.09
42119;BMP280;27783;42.782;23.274;2024-03-08T07:43:54;95791.88;;;6.05
42119;BMP280;27783;42.782;23.274;2024-03-08T07:46:19;95791.09;;;6.04
42119;BMP280;27783;42.782;23.274;2024-03-08T07:48:45;95782.41;;;6.41
42119;BMP280;27783;42.782;23.274;2024-03-08T07:51:11;95789.13;;;6.38
42119;BMP280;27783;42.782;23.274;2024-03-08T07:53:38;95788.00;;;6.39
42119;BMP280;27783;42.782;23.274;2024-03-08T07:56:04;95792.81;;;6.16
42119;BMP280;27783;42.782;23.274;2024-03-08T07:58:30;95790.63;;;6.61
42119;BMP280;27783;42.782;23.274;2024-03-08T08:00:56;95784.25;;;6.62
42119;BMP280;27783;42.782;23.274;2024-03-08T08:03:22;95780.03;;;6.54
42119;BMP280;27783;42.782;23.274;2024-03-08T08:05:47;95783.75;;;6.53
42119;BMP280;27783;42.782;23.274;2024-03-08T08:08:14;95791.16;;;6.48
42119;BMP280;27783;42.782;23.274;2024-03-08T08:10:40;95784.44;;;6.72
42119;BMP280;27783;42.782;23.274;2024-03-08T08:13:05;95781.13;;;6.53
42119;BMP280;27783;42.782;23.274;2024-03-08T08:15:31;95780.94;;;6.87
42119;BMP280;27783;42.782;23.274;2024-03-08T08:17:56;95789.63;;;6.69
42119;BMP280;27783;42.782;23.274;2024-03-08T08:20:22;95789.78;;;6.79
42119;BMP280;27783;42.782;23.274;2024-03-08T08:22:48;95782.78;;;7.12
42119;BMP280;27783;42.782;23.274;2024-03-08T08:25:14;95775.84;;;7.22
42119;BMP280;27783;42.782;23.274;2024-03-08T08:27:45;95786.31;;;7.22
42119;BMP280;27783;42.782;23.274;2024-03-08T08:30:11;95784.34;;;7.41
42119;BMP280;27783;42.782;23.274;2024-03-08T08:32:37;95780.63;;;7.74
42119;BMP280;27783;42.782;23.274;2024-03-08T08:35:05;95787.47;;;7.50
42119;BMP280;27783;42.782;23.274;2024-03-08T08:37:31;95785.50;;;7.72
42119;BMP280;27783;42.782;23.274;2024-03-08T08:39:58;95784.22;;;7.92
42119;BMP280;27783;42.782;23.274;2024-03-08T08:42:24;95784.78;;;7.75
42119;BMP280;27783;42.782;23.274;2024-03-08T08:44:50;95780.13;;;7.62
42119;BMP280;27783;42.782;23.274;2024-03-08T08:47:17;95776.25;;;8.14
42119;BMP280;27783;42.782;23.274;2024-03-08T08:49:44;95773.34;;;8.22
42119;BMP280;27783;42.782;23.274;2024-03-08T08:52:11;95770.28;;;8.16
42119;BMP280;27783;42.782;23.274;2024-03-08T08:54:37;95776.13;;;8.35
42119;BMP280;27783;42.782;23.274;2024-03-08T08:57:02;95771.47;;;7.90
42119;BMP280;27783;42.782;23.274;2024-03-08T08:59:33;95764.16;;;8.02
42119;BMP280;27783;42.782;23.274;2024-03-08T09:02:01;95758.28;;;8.16
42119;BMP280;27783;42.782;23.274;2024-03-08T09:04:29;95770.78;;;7.93
42119;BMP280;27783;42.782;23.274;2024-03-08T09:06:54;95759.69;;;7.78
42119;BMP280;27783;42.782;23.274;2024-03-08T09:09:20;95764.94;;;7.78
42119;BMP280;27783;42.782;23.274;2024-03-08T09:11:47;95752.28;;;9.69
42119;BMP280;27783;42.782;23.274;2024-03-08T09:14:13;95749.19;;;8.45
42119;BMP280;27783;42.782;23.274;2024-03-08T09:16:39;95748.78;;;9.45
42119;BMP280;27783;42.782;23.274;2024-03-08T09:19:05;95756.16;;;8.70
42119;BMP280;27783;42.782;23.274;2024-03-08T09:21:32;95755.81;;;8.75
42119;BMP280;27783;42.782;23.274;2024-03-08T09:24:00;95749.56;;;9.52
42119;BMP280;27783;42.782;23.274;2024-03-08T09:26:26;95745.22;;;8.61
42119;BMP280;27783;42.782;23.274;2024-03-08T09:28:52;95757.94;;;8.56
42119;BMP280;27783;42.782;23.274;2024-03-08T09:31:18;95759.78;;;8.16
42119;BMP280;27783;42.782;23.274;2024-03-08T09:33:45;95755.69;;;8.58
42119;BMP280;27783;42.782;23.274;2024-03-08T09:36:10;95751.44;;;9.51
42119;BMP280;27783;42.782;23.274;2024-03-08T09:38:39;95753.31;;;8.88
42119;BMP280;27783;42.782;23.274;2024-03-08T09:41:05;95754.66;;;9.18
42119;BMP280;27783;42.782;23.274;2024-03-08T09:43:31;95752.50;;;9.40
42119;BMP280;27783;42.782;23.274;2024-03-08T09:45:57;95764.06;;;8.73
42119;BMP280;27783;42.782;23.274;2024-03-08T09:48:23;95765.06;;;9.04
42119;BMP280;27783;42.782;23.274;2024-03-08T09:50:49;95758.31;;;9.07
42119;BMP280;27783;42.782;23.274;2024-03-08T09:53:15;95756.19;;;9.29
42119;BMP280;27783;42.782;23.274;2024-03-08T09:55:42;95761.69;;;8.58
42119;BMP280;27783;42.782;23.274;2024-03-08T09:58:11;95764.47;;;8.75
42119;BMP280;27783;42.782;23.274;2024-03-08T10:00:47;95766.75;;;9.32
42119;BMP280;27783;42.782;23.274;2024-03-08T10:03:13;95762.22;;;9.33
42119;BMP280;27783;42.782;23.274;2024-03-08T10:05:41;95762.69;;;8.89
42119;BMP280;27783;42.782;23.274;2024-03-08T10:08:07;95757.94;;;9.05
42119;BMP280;27783;42.782;23.274;2024-03-08T10:10:34;95759.97;;;9.35
42119;BMP280;27783;42.782;23.274;2024-03-08T10:13:00;95748.00;;;9.41
42119;BMP280;27783;42.782;23.274;2024-03-08T10:15:29;95753.97;;;9.31
42119;BMP280;27783;42.782;23.274;2024-03-08T10:17:57;95760.50;;;8.95
42119;BMP280;27783;42.782;23.274;2024-03-08T10:20:22;95745.50;;;9.68
42119;BMP280;27783;42.782;23.274;2024-03-08T10:22:49;95738.16;;;10.04
42119;BMP280;27783;42.782;23.274;2024-03-08T10:25:14;95732.97;;;10.96
42119;BMP280;27783;42.782;23.274;2024-03-08T10:27:40;95746.41;;;9.99
42119;BMP280;27783;42.782;23.274;2024-03-08T10:30:10;95734.09;;;10.67
42119;BMP280;27783;42.782;23.274;2024-03-08T10:32:37;95741.63;;;10.49
42119;BMP280;27783;42.782;23.274;2024-03-08T10:35:03;95736.38;;;10.82
42119;BMP280;27783;42.782;23.274;2024-03-08T10:37:29;95731.84;;;10.66
42119;BMP280;27783;42.782;23.274;2024-03-08T10:40:03;95731.81;;;10.39
42119;BMP280;27783;42.782;23.274;2024-03-08T10:42:52;95722.16;;;11.94
42119;BMP280;27783;42.782;23.274;2024-03-08T10:45:37;95725.78;;;10.42
42119;BMP280;27783;42.782;23.274;2024-03-08T10:48:28;95724.91;;;9.83
42119;BMP280;27783;42.782;23.274;2024-03-08T10:50:59;95718.28;;;10.74
42119;BMP280;27783;42.782;23.274;2024-03-08T10:53:26;95725.13;;;9.55
42119;BMP280;27783;42.782;23.274;2024-03-08T10:55:53;95729.31;;;9.66
42119;BMP280;27783;42.782;23.274;2024-03-08T10:58:22;95730.50;;;9.06
42119;BMP280;27783;42.782;23.274;2024-03-08T11:00:48;95713.34;;;10.32
42119;BMP280;27783;42.782;23.274;2024-03-08T11:06:23;95704.63;;;11.23
42119;BMP280;27783;42.782;23.274;2024-03-08T11:08:54;95700.94;;;10.26
42119;BMP280;27783;42.782;23.274;2024-03-08T11:11:40;95702.63;;;9.57
42119;BMP280;27783;42.782;23.274;2024-03-08T11:14:43;95693.41;;;10.31
42119;BMP280;27783;42.782;23.274;2024-03-08T11:17:09;95697.69;;;9.52
42119;BMP280;27783;42.782;23.274;2024-03-08T11:19:35;95702.03;;;10.11
42119;BMP280;27783;42.782;23.274;2024-03-08T11:22:02;95688.50;;;10.13
42119;BMP280;27783;42.782;23.274;2024-03-08T11:24:28;95694.19;;;10.59
42119;BMP280;27783;42.782;23.274;2024-03-08T11:27:03;95692.66;;;10.88
42119;BMP280;27783;42.782;23.274;2024-03-08T11:32:08;95677.56;;;11.13
42119;BMP280;27783;42.782;23.274;2024-03-08T11:34:41;95673.84;;;10.73
42119;BMP280;27783;42.782;23.274;2024-03-08T11:37:14;95672.94;;;11.50
42119;BMP280;27783;42.782;23.274;2024-03-08T11:39:48;95663.66;;;10.34
42119;BMP280;27783;42.782;23.274;2024-03-08T11:42:15;95680.94;;;9.84
42119;BMP280;27783;42.782;23.274;2024-03-08T11:44:46;95677.44;;;9.66
42119;BMP280;27783;42.782;23.274;2024-03-08T11:47:13;95675.66;;;9.84
42119;BMP280;27783;42.782;23.274;2024-03-08T11:49:40;95672.72;;;10.19
42119;BMP280;27783;42.782;23.274;2024-03-08T11:52:16;95668.59;;;10.63
42119;BMP280;27783;42.782;23.274;2024-03-08T11:54:43;95668.47;;;11.17
42119;BMP280;27783;42.782;23.274;2024-03-08T11:57:13;95662.28;;;11.71
42119;BMP280;27783;42.782;23.274;2024-03-08T11:59:38;95658.16;;;11.63
42119;BMP280;27783;42.782;23.274;2024-03-08T12:02:05;95658.75;;;12.50
42119;BMP280;27783;42.782;23.274;2024-03-08T12:04:32;95649.47;;;12.79
42119;BMP280;27783;42.782;23.274;2024-03-08T12:07:01;95658.66;;;11.31
42119;BMP280;27783;42.782;23.274;2024-03-08T12:09:35;95652.84;;;12.79
42119;BMP280;27783;42.782;23.274;2024-03-08T12:12:02;95657.22;;;11.97
42119;BMP280;27783;42.782;23.274;2024-03-08T12:14:33;95654.81;;;12.19
42119;BMP280;27783;42.782;23.274;2024-03-08T12:16:59;95662.84;;;11.08
42119;BMP280;27783;42.782;23.274;2024-03-08T12:19:27;95654.91;;;11.32
42119;BMP280;27783;42.782;23.274;2024-03-08T12:21:54;95654.94;;;11.25
42119;BMP280;27783;42.782;23.274;2024-03-08T12:24:20;95658.72;;;10.97
42119;BMP280;27783;42.782;23.274;2024-03-08T12:26:47;95661.78;;;10.65
42119;BMP280;27783;42.782;23.274;2024-03-08T12:29:24;95669.69;;;10.21
42119;BMP280;27783;42.782;23.274;2024-03-08T12:31:58;95649.47;;;11.66
42119;BMP280;27783;42.782;23.274;2024-03-08T12:34:26;95642.06;;;11.41
42119;BMP280;27783;42.782;23.274;2024-03-08T12:36:52;95650.81;;;10.97
42119;BMP280;27783;42.782;23.274;2024-03-08T12:39:19;95647.84;;;10.88
42119;BMP280;27783;42.782;23.274;2024-03-08T12:41:48;95640.56;;;11.19
42119;BMP280;27783;42.782;23.274;2024-03-08T12:44:17;95628.53;;;11.25
42119;BMP280;27783;42.782;23.274;2024-03-08T12:46:44;95634.19;;;11.27
42119;BMP280;27783;42.782;23.274;2024-03-08T12:49:10;95632.13;;;11.68
42119;BMP280;27783;42.782;23.274;2024-03-08T12:51:36;95631.97;;;11.02
42119;BMP280;27783;42.782;23.274;2024-03-08T12:54:05;95632.63;;;11.36
42119;BMP280;27783;42.782;23.274;2024-03-08T12:56:33;95630.03;;;11.19
42119;BMP280;27783;42.782;23.274;2024-03-08T12:58:59;95639.53;;;10.86
42119;BMP280;27783;42.782;23.274;2024-03-08T13:01:25;95632.44;;;10.43
42119;BMP280;27783;42.782;23.274;2024-03-08T13:03:52;95637.66;;;10.90
42119;BMP280;27783;42.782;23.274;2024-03-08T13:06:18;95630.91;;;9.84
42119;BMP280;27783;42.782;23.274;2024-03-08T13:08:47;95631.66;;;10.83
42119;BMP280;27783;42.782;23.274;2024-03-08T13:11:13;95622.41;;;11.52
42119;BMP280;27783;42.782;23.274;2024-03-08T13:13:42;95633.91;;;10.71
42119;BMP280;27783;42.782;23.274;2024-03-08T13:16:08;95636.56;;;10.61
42119;BMP280;27783;42.782;23.274;2024-03-08T13:18:35;95629.38;;;10.78
42119;BMP280;27783;42.782;23.274;2024-03-08T13:21:01;95632.78;;;10.85
42119;BMP280;27783;42.782;23.274;2024-03-08T13:23:38;95632.38;;;10.87
42119;BMP280;27783;42.782;23.274;2024-03-08T13:26:09;95632.34;;;10.97
42119;BMP280;27783;42.782;23.274;2024-03-08T13:28:37;95634.28;;;10.80
42119;BMP280;27783;42.782;23.274;2024-03-08T13:31:06;95623.78;;;10.39
42119;BMP280;27783;42.782;23.274;2024-03-08T13:33:33;95619.47;;;11.16
42119;BMP280;27783;42.782;23.274;2024-03-08T13:36:02;95618.72;;;11.22
42119;BMP280;27783;42.782;23.274;2024-03-08T13:38:28;95627.50;;;10.85
42119;BMP280;27783;42.782;23.274;2024-03-08T13:40:53;95615.06;;;10.96
42119;BMP280;27783;42.782;23.274;2024-03-08T13:43:19;95605.56;;;11.92
42119;BMP280;27783;42.782;23.274;2024-03-08T13:45:45;95620.41;;;10.45
42119;BMP280;27783;42.782;23.274;2024-03-08T13:48:12;95621.91;;;10.36
42119;BMP280;27783;42.782;23.274;2024-03-08T13:50:38;95614.38;;;10.38
42119;BMP280;27783;42.782;23.274;2024-03-08T13:53:05;95613.22;;;10.63
42119;BMP280;27783;42.782;23.274;2024-03-08T13:55:30;95611.38;;;10.32
42119;BMP280;27783;42.782;23.274;2024-03-08T13:57:56;95610.59;;;10.05
42119;BMP280;27783;42.782;23.274;2024-03-08T14:00:22;95607.59;;;10.03
42119;BMP280;27783;42.782;23.274;2024-03-08T14:02:50;95612.09;;;9.89
42119;BMP280;27783;42.782;23.274;2024-03-08T14:05:15;95613.16;;;9.57
42119;BMP280;27783;42.782;23.274;2024-03-08T14:07:41;95624.00;;;9.42
42119;BMP280;27783;42.782;23.274;2024-03-08T14:10:07;95624.78;;;9.49
42119;BMP280;27783;42.782;23.274;2024-03-08T14:12:35;95633.06;;;9.58